Time;durP1;ratioP1;P1;durP2;ratioP2;P2;SDS_P1;SDS_P2;PMS_P1;PMS_P2;Temp;Humidity;BMP_temperature;BMP_pressure;BME280_temperature;BME280_humidity;BME280_pressure;Samples;Min_cycle;Max_cycle;Signal;HPM_P1;HPM_P2
2024/04/12 00:01:22;;;;;;;3.90;3.50;;;;;;;;;;5443114;26;20009;-65
2024/04/12 00:03:53;;;;;;;4.20;3.08;;;;;;;;;;5445266;26;20003;-66
2024/04/12 00:06:25;;;;;;;5.22;3.13;;;;;;;;;;5444135;26;20010;-67
2024/04/12 00:08:57;;;;;;;4.70;3.78;;;;;;;;;;5436297;26;20085;-66
2024/04/12 00:11:24;;;;;;;5.22;3.60;;;;;;;;;;5430628;26;20485;-65
2024/04/12 00:13:55;;;;;;;4.30;3.40;;;;;;;;;;5439315;26;20007;-65
2024/04/12 00:16:25;;;;;;;5.05;3.45;;;;;;;;;;5446696;26;20384;-66
2024/04/12 00:19:07;;;;;;;3.85;2.97;;;;;;;;;;5440874;26;20655;-67
2024/04/12 00:21:37;;;;;;;4.72;3.40;;;;;;;;;;5446617;26;20003;-65
2024/04/12 00:24:11;;;;;;;5.03;3.13;;;;;;;;;;5429934;26;20003;-65
2024/04/12 00:26:42;;;;;;;5.20;3.28;;;;;;;;;;5438755;26;20108;-66
2024/04/12 00:29:25;;;;;;;5.10;3.38;;;;;;;;;;5439996;26;20006;-66
2024/04/12 00:32:03;;;;;;;6.68;3.35;;;;;;;;;;5442737;26;20329;-65
2024/04/12 00:34:37;;;;;;;4.72;3.53;;;;;;;;;;5445738;26;20460;-68
2024/04/12 00:37:15;;;;;;;4.32;3.30;;;;;;;;;;5444919;26;19999;-66
2024/04/12 00:39:48;;;;;;;3.85;3.10;;;;;;;;;;5438240;26;19999;-66
2024/04/12 00:42:24;;;;;;;4.68;3.30;;;;;;;;;;5437988;26;20008;-66
2024/04/12 00:44:54;;;;;;;8.40;3.45;;;;;;;;;;5447490;26;20002;-66
2024/04/12 00:47:27;;;;;;;3.78;3.20;;;;;;;;;;5446686;26;20347;-65
2024/04/12 00:50:00;;;;;;;5.10;3.22;;;;;;;;;;5439593;26;20473;-65
2024/04/12 00:52:28;;;;;;;5.68;3.22;;;;;;;;;;5439037;26;20447;-65
2024/04/12 00:55:03;;;;;;;4.65;3.30;;;;;;;;;;5438554;26;20003;-64
2024/04/12 00:57:35;;;;;;;3.75;3.17;;;;;;;;;;5439300;26;20007;-65
2024/04/12 01:00:08;;;;;;;4.85;3.58;;;;;;;;;;5428744;26;20018;-66
2024/04/12 01:02:40;;;;;;;4.20;3.20;;;;;;;;;;5445936;26;20464;-65
2024/04/12 01:05:15;;;;;;;5.13;3.22;;;;;;;;;;5448857;26;20495;-65
2024/04/12 01:07:48;;;;;;;4.57;3.50;;;;;;;;;;5447303;26;20537;-66
2024/04/12 01:10:22;;;;;;;5.40;3.20;;;;;;;;;;5434356;26;19999;-66
2024/04/12 01:12:54;;;;;;;3.83;3.25;;;;;;;;;;5443459;26;20017;-65
2024/04/12 01:15:25;;;;;;;6.28;3.45;;;;;;;;;;5433884;26;20094;-65
2024/04/12 01:17:56;;;;;;;4.07;3.22;;;;;;;;;;5447505;26;20007;-67
2024/04/12 01:20:27;;;;;;;4.75;3.20;;;;;;;;;;5441407;26;19999;-66
2024/04/12 01:22:58;;;;;;;5.03;3.38;;;;;;;;;;5446282;26;20078;-66
2024/04/12 01:25:31;;;;;;;3.83;3.13;;;;;;;;;;5439437;26;20003;-65
2024/04/12 01:28:02;;;;;;;3.95;3.28;;;;;;;;;;5436068;26;20017;-65
2024/04/12 01:30:34;;;;;;;4.35;3.70;;;;;;;;;;5443761;26;20003;-65
2024/04/12 01:33:06;;;;;;;5.35;3.92;;;;;;;;;;5431816;26;20007;-65
2024/04/12 01:35:36;;;;;;;4.28;3.35;;;;;;;;;;5439912;26;19999;-66
2024/04/12 01:38:16;;;;;;;3.85;3.40;;;;;;;;;;5445686;26;20006;-67
2024/04/12 01:40:56;;;;;;;4.75;3.85;;;;;;;;;;5443533;26;19998;-65
2024/04/12 01:43:27;;;;;;;3.75;2.92;;;;;;;;;;5444864;26;20006;-66
2024/04/12 01:45:57;;;;;;;4.38;3.63;;;;;;;;;;5429411;26;19999;-66
2024/04/12 01:48:28;;;;;;;4.45;3.47;;;;;;;;;;5443213;26;20014;-66
2024/04/12 01:51:01;;;;;;;5.10;3.75;;;;;;;;;;5446455;26;20043;-65
2024/04/12 01:53:36;;;;;;;5.55;3.97;;;;;;;;;;5427145;26;20015;-67
2024/04/12 01:56:12;;;;;;;4.35;3.55;;;;;;;;;;5431990;26;20010;-67
2024/04/12 01:58:42;;;;;;;4.35;3.70;;;;;;;;;;5431447;26;20019;-67
2024/04/12 02:01:14;;;;;;;3.60;3.03;;;;;;;;;;5444526;26;20100;-65
2024/04/12 02:03:42;;;;;;;5.70;3.85;;;;;;;;;;5433545;26;19999;-66
2024/04/12 02:06:15;;;;;;;3.72;3.20;;;;;;;;;;5446240;26;20076;-66
2024/04/12 02:08:44;;;;;;;5.18;3.25;;;;;;;;;;5439123;26;20019;-66
2024/04/12 02:11:23;;;;;;;4.47;3.63;;;;;;;;;;5436912;26;20014;-65
2024/04/12 02:13:52;;;;;;;6.10;3.40;;;;;;;;;;5429749;26;20080;-65
2024/04/12 02:16:23;;;;;;;4.75;3.30;;;;;;;;;;5445978;26;20003;-66
2024/04/12 02:18:50;;;;;;;4.20;3.42;;;;;;;;;;5442269;26;20003;-66
2024/04/12 02:21:21;;;;;;;5.57;3.47;;;;;;;;;;5439025;26;20003;-66
2024/04/12 02:23:52;;;;;;;5.28;3.60;;;;;;;;;;5442599;26;20017;-66
2024/04/12 02:26:25;;;;;;;5.65;3.80;;;;;;;;;;5444285;26;20455;-66
2024/04/12 02:28:53;;;;;;;6.80;3.67;;;;;;;;;;5440319;26;19999;-68
2024/04/12 02:31:23;;;;;;;4.20;3.63;;;;;;;;;;5444496;26;20014;-67
2024/04/12 02:33:54;;;;;;;4.75;3.65;;;;;;;;;;5426735;26;20061;-65
2024/04/12 02:36:30;;;;;;;5.22;3.72;;;;;;;;;;5434116;26;20014;-66
2024/04/12 02:38:58;;;;;;;6.05;3.50;;;;;;;;;;5451528;26;20479;-70
2024/04/12 02:41:37;;;;;;;6.75;4.00;;;;;;;;;;5444908;26;20017;-67
2024/04/12 02:44:06;;;;;;;7.00;3.83;;;;;;;;;;5424627;26;20012;-66
2024/04/12 02:46:36;;;;;;;5.80;3.80;;;;;;;;;;5441866;26;20013;-66
2024/04/12 02:49:06;;;;;;;4.72;3.60;;;;;;;;;;5434588;26;20058;-66
2024/04/12 02:51:47;;;;;;;4.70;3.53;;;;;;;;;;5439075;26;20013;-67
2024/04/12 02:54:16;;;;;;;3.78;3.42;;;;;;;;;;5440046;26;20011;-67
2024/04/12 02:56:49;;;;;;;5.53;3.83;;;;;;;;;;5446413;26;20002;-67
2024/04/12 02:59:17;;;;;;;6.32;3.47;;;;;;;;;;5423578;26;20023;-66
2024/04/12 03:01:47;;;;;;;4.22;3.42;;;;;;;;;;5441068;26;20049;-66
2024/04/12 03:04:15;;;;;;;5.85;3.53;;;;;;;;;;5441687;26;20035;-66
2024/04/12 03:06:46;;;;;;;3.58;3.17;;;;;;;;;;5429925;26;20428;-67
2024/04/12 03:09:18;;;;;;;5.38;3.63;;;;;;;;;;5428483;26;20006;-65
2024/04/12 03:11:51;;;;;;;5.22;3.40;;;;;;;;;;5440630;26;20448;-65
2024/04/12 03:14:18;;;;;;;4.03;3.25;;;;;;;;;;5437830;26;20112;-67
2024/04/12 03:16:51;;;;;;;5.28;3.65;;;;;;;;;;5443566;26;20013;-66
2024/04/12 03:19:19;;;;;;;4.20;3.50;;;;;;;;;;5433929;26;19999;-66
2024/04/12 03:21:50;;;;;;;5.13;3.35;;;;;;;;;;5429453;26;20013;-65
2024/04/12 03:24:19;;;;;;;4.55;3.45;;;;;;;;;;5435430;26;20014;-69
2024/04/12 03:26:54;;;;;;;5.43;3.90;;;;;;;;;;5444292;26;20052;-66
2024/04/12 03:29:22;;;;;;;5.38;3.58;;;;;;;;;;5422121;26;20054;-67
2024/04/12 03:31:52;;;;;;;6.20;3.80;;;;;;;;;;5435134;26;19994;-66
2024/04/12 03:34:19;;;;;;;5.57;3.75;;;;;;;;;;5448175;26;20031;-66
2024/04/12 03:37:16;;;;;;;6.10;3.28;;;;;;;;;;5436069;26;20099;-67
2024/04/12 03:39:47;;;;;;;3.72;2.92;;;;;;;;;;5425767;26;20009;-66
2024/04/12 03:42:20;;;;;;;5.18;3.60;;;;;;;;;;5437551;26;20418;-65
2024/04/12 03:44:48;;;;;;;4.60;3.42;;;;;;;;;;5437760;26;20003;-69
2024/04/12 03:47:19;;;;;;;4.43;3.60;;;;;;;;;;5440776;26;20013;-66
2024/04/12 03:49:52;;;;;;;3.65;3.22;;;;;;;;;;5445399;26;19998;-67
2024/04/12 03:52:22;;;;;;;3.83;3.30;;;;;;;;;;5432288;26;19999;-65
2024/04/12 03:54:53;;;;;;;4.65;3.60;;;;;;;;;;5439534;26;20343;-65
2024/04/12 03:57:26;;;;;;;4.97;3.35;;;;;;;;;;5443353;26;20011;-66
2024/04/12 03:59:59;;;;;;;4.20;3.42;;;;;;;;;;5426660;26;20741;-67
2024/04/12 04:02:29;;;;;;;4.40;3.65;;;;;;;;;;5422350;26;20000;-67
2024/04/12 04:05:13;;;;;;;4.00;3.33;;;;;;;;;;5437000;26;20126;-67
2024/04/12 04:07:46;;;;;;;3.97;3.35;;;;;;;;;;5434610;26;20030;-66
2024/04/12 04:10:21;;;;;;;3.92;3.20;;;;;;;;;;5427196;26;20004;-68
2024/04/12 04:12:53;;;;;;;4.10;3.50;;;;;;;;;;5436736;26;20011;-67
2024/04/12 04:15:25;;;;;;;4.57;3.30;;;;;;;;;;5421439;26;21693;-66
2024/04/12 04:17:53;;;;;;;5.32;3.10;;;;;;;;;;5445173;26;20316;-67
2024/04/12 04:20:27;;;;;;;3.78;3.08;;;;;;;;;;5434030;26;20614;-67
2024/04/12 04:23:02;;;;;;;5.00;3.45;;;;;;;;;;5436861;26;20325;-67
2024/04/12 04:25:33;;;;;;;5.22;3.40;;;;;;;;;;5424045;26;20012;-67
2024/04/12 04:28:03;;;;;;;4.75;3.53;;;;;;;;;;5432066;26;20011;-66
2024/04/12 04:30:35;;;;;;;5.03;3.63;;;;;;;;;;5433679;26;20015;-66
2024/04/12 04:33:03;;;;;;;3.53;3.00;;;;;;;;;;5446899;26;20242;-67
2024/04/12 04:35:33;;;;;;;4.80;3.38;;;;;;;;;;5433315;26;20017;-67
2024/04/12 04:38:01;;;;;;;3.65;2.97;;;;;;;;;;5438673;26;19999;-66
2024/04/12 04:40:35;;;;;;;4.32;2.78;;;;;;;;;;5420055;26;20350;-66
2024/04/12 04:43:07;;;;;;;5.73;3.10;;;;;;;;;;5432724;26;20626;-66
2024/04/12 04:45:38;;;;;;;5.18;3.20;;;;;;;;;;5444483;26;20010;-67
2024/04/12 04:48:10;;;;;;;4.20;3.40;;;;;;;;;;5437962;26;20076;-67
2024/04/12 04:50:41;;;;;;;4.32;3.25;;;;;;;;;;5424620;26;19998;-66
2024/04/12 04:53:12;;;;;;;3.47;2.75;;;;;;;;;;5433492;26;20000;-66
2024/04/12 04:55:39;;;;;;;5.43;2.88;;;;;;;;;;5442054;26;20014;-66
2024/04/12 04:58:12;;;;;;;3.80;2.75;;;;;;;;;;5427012;26;20014;-66
2024/04/12 05:00:40;;;;;;;4.72;3.33;;;;;;;;;;5419893;26;20011;-66
2024/04/12 05:03:15;;;;;;;4.32;3.70;;;;;;;;;;5424263;26;20007;-65
2024/04/12 05:05:43;;;;;;;3.42;2.67;;;;;;;;;;5437978;26;20011;-66
2024/04/12 05:08:14;;;;;;;6.63;3.13;;;;;;;;;;5423062;26;20014;-68
2024/04/12 05:10:42;;;;;;;5.43;3.40;;;;;;;;;;5417868;26;20023;-65
2024/04/12 05:13:17;;;;;;;4.47;3.15;;;;;;;;;;5445355;26;20504;-66
2024/04/12 05:15:51;;;;;;;4.68;3.45;;;;;;;;;;5435270;26;20003;-66
2024/04/12 05:18:22;;;;;;;3.75;3.13;;;;;;;;;;5438457;26;20036;-66
2024/04/12 05:20:50;;;;;;;3.50;3.10;;;;;;;;;;5435564;26;20015;-66
2024/04/12 05:23:20;;;;;;;4.30;3.50;;;;;;;;;;5438822;26;20000;-67
2024/04/12 05:25:49;;;;;;;5.20;2.80;;;;;;;;;;5431323;26;20091;-67
2024/04/12 05:28:27;;;;;;;3.90;3.03;;;;;;;;;;5436694;26;20007;-66
2024/04/12 05:30:54;;;;;;;3.83;2.75;;;;;;;;;;5431147;26;20015;-65
2024/04/12 05:33:27;;;;;;;4.13;3.03;;;;;;;;;;5429873;26;20030;-63
2024/04/12 05:35:55;;;;;;;3.22;2.92;;;;;;;;;;5422559;26;20000;-65
2024/04/12 05:38:26;;;;;;;5.45;3.33;;;;;;;;;;5426846;26;20401;-64
2024/04/12 05:40:54;;;;;;;3.40;2.65;;;;;;;;;;5448382;26;20013;-64
2024/04/12 05:43:29;;;;;;;3.38;2.80;;;;;;;;;;5437895;26;20514;-65
2024/04/12 05:45:58;;;;;;;3.38;2.85;;;;;;;;;;5439513;26;20546;-65
2024/04/12 05:48:30;;;;;;;3.88;2.92;;;;;;;;;;5446252;26;20003;-65
2024/04/12 05:50:58;;;;;;;3.47;2.80;;;;;;;;;;5448428;26;20417;-64
2024/04/12 05:53:30;;;;;;;2.85;2.63;;;;;;;;;;5435740;26;20532;-64
2024/04/12 05:58:53;;;;;;;4.88;3.25;;;;;;;;;;5447309;26;19998;-65
2024/04/12 06:01:24;;;;;;;6.03;2.97;;;;;;;;;;5431825;26;20007;-64
2024/04/12 06:03:56;;;;;;;4.72;3.28;;;;;;;;;;5434295;26;20336;-65
2024/04/12 06:06:24;;;;;;;3.58;3.13;;;;;;;;;;5440330;26;20070;-65
2024/04/12 06:08:58;;;;;;;6.90;3.50;;;;;;;;;;5445078;26;20053;-65
2024/04/12 06:11:26;;;;;;;3.35;3.05;;;;;;;;;;5447627;26;20003;-64
2024/04/12 06:14:01;;;;;;;3.47;3.05;;;;;;;;;;5432462;26;20003;-64
2024/04/12 06:16:29;;;;;;;3.88;3.30;;;;;;;;;;5425908;26;20406;-66
2024/04/12 06:19:02;;;;;;;4.70;3.25;;;;;;;;;;5438331;26;20397;-65
2024/04/12 06:21:30;;;;;;;11.40;4.32;;;;;;;;;;5445615;26;20392;-65
2024/04/12 06:24:08;;;;;;;6.05;3.47;;;;;;;;;;5439932;26;20452;-65
2024/04/12 06:26:39;;;;;;;7.68;4.07;;;;;;;;;;5444291;26;20014;-64
2024/04/12 06:29:16;;;;;;;5.70;4.15;;;;;;;;;;5428677;26;20416;-64
2024/04/12 06:31:56;;;;;;;5.55;4.03;;;;;;;;;;5435414;26;20031;-64
2024/04/12 06:34:26;;;;;;;6.75;4.00;;;;;;;;;;5427245;26;20015;-64
2024/04/12 06:36:57;;;;;;;3.70;3.40;;;;;;;;;;5438690;26;20014;-65
2024/04/12 06:39:28;;;;;;;5.30;3.75;;;;;;;;;;5435173;26;19999;-65
2024/04/12 06:41:57;;;;;;;6.10;3.63;;;;;;;;;;5436925;26;20006;-65
2024/04/12 06:44:30;;;;;;;5.45;4.07;;;;;;;;;;5437932;26;20138;-64
2024/04/12 06:46:58;;;;;;;5.82;4.00;;;;;;;;;;5445928;26;20014;-65
2024/04/12 06:49:29;;;;;;;6.43;4.45;;;;;;;;;;5435318;26;19999;-66
2024/04/12 06:52:09;;;;;;;8.73;4.05;;;;;;;;;;5443977;26;20316;-64
2024/04/12 06:54:41;;;;;;;9.77;4.22;;;;;;;;;;5444579;26;20014;-64
2024/04/12 06:57:09;;;;;;;3.90;3.38;;;;;;;;;;5445571;26;20013;-63
2024/04/12 06:59:46;;;;;;;7.05;4.03;;;;;;;;;;5444497;26;20118;-65
2024/04/12 07:02:14;;;;;;;4.40;3.50;;;;;;;;;;5440552;26;20014;-64
2024/04/12 07:04:44;;;;;;;4.93;3.85;;;;;;;;;;5437693;26;20418;-64
2024/04/12 07:07:12;;;;;;;7.03;4.03;;;;;;;;;;5445358;26;20080;-64
2024/04/12 07:09:45;;;;;;;5.13;3.88;;;;;;;;;;5449684;26;20072;-64
2024/04/12 07:12:13;;;;;;;5.72;4.18;;;;;;;;;;5444528;26;20079;-64
2024/04/12 07:14:46;;;;;;;4.00;3.60;;;;;;;;;;5435643;26;20003;-65
2024/04/12 07:17:20;;;;;;;4.75;4.20;;;;;;;;;;5442617;26;20595;-65
2024/04/12 07:19:52;;;;;;;5.25;3.67;;;;;;;;;;5442597;26;20004;-65
2024/04/12 07:22:19;;;;;;;4.53;3.45;;;;;;;;;;5442753;26;20003;-63
2024/04/12 07:24:50;;;;;;;5.63;3.70;;;;;;;;;;5444108;26;20013;-64
2024/04/12 07:27:18;;;;;;;5.03;3.95;;;;;;;;;;5436640;26;20003;-65
2024/04/12 07:29:51;;;;;;;4.57;3.70;;;;;;;;;;5445441;26;20472;-64
2024/04/12 07:32:22;;;;;;;5.07;3.92;;;;;;;;;;5441867;26;20035;-64
2024/04/12 07:34:54;;;;;;;6.70;3.90;;;;;;;;;;5443286;26;20017;-64
2024/04/12 07:37:28;;;;;;;5.10;3.72;;;;;;;;;;5429028;26;20014;-65
2024/04/12 07:40:15;;;;;;;8.48;4.15;;;;;;;;;;5442223;26;19999;-66
2024/04/12 07:42:45;;;;;;;8.65;4.20;;;;;;;;;;5419486;26;20003;-64
2024/04/12 07:45:23;;;;;;;7.78;4.32;;;;;;;;;;5437447;26;20537;-64
2024/04/12 07:47:55;;;;;;;4.47;3.22;;;;;;;;;;5439969;26;20067;-65
2024/04/12 07:50:31;;;;;;;5.47;3.97;;;;;;;;;;5438288;26;19996;-64
2024/04/12 07:53:02;;;;;;;5.55;4.00;;;;;;;;;;5441300;26;20014;-63
2024/04/12 07:55:34;;;;;;;6.47;4.22;;;;;;;;;;5439587;26;20003;-64
2024/04/12 07:58:08;;;;;;;4.13;3.45;;;;;;;;;;5431999;26;20384;-65
2024/04/12 08:00:45;;;;;;;7.50;3.67;;;;;;;;;;5427430;26;20084;-65
2024/04/12 08:03:16;;;;;;;3.78;3.38;;;;;;;;;;5448770;26;20010;-64
2024/04/12 08:06:03;;;;;;;3.65;3.15;;;;;;;;;;5449344;26;20047;-64
2024/04/12 08:08:32;;;;;;;4.18;2.92;;;;;;;;;;5445814;26;19999;-66
2024/04/12 08:11:11;;;;;;;7.53;3.40;;;;;;;;;;5442768;26;20076;-64
2024/04/12 08:13:44;;;;;;;6.43;3.42;;;;;;;;;;5432392;26;20028;-64
2024/04/12 08:16:23;;;;;;;3.85;3.03;;;;;;;;;;5447171;26;20468;-65
2024/04/12 08:18:54;;;;;;;4.22;3.33;;;;;;;;;;5442436;26;20373;-64
2024/04/12 08:21:28;;;;;;;3.25;2.88;;;;;;;;;;5433151;26;20007;-65
2024/04/12 08:23:56;;;;;;;5.53;3.42;;;;;;;;;;5442214;26;19995;-63
2024/04/12 08:26:27;;;;;;;5.80;3.35;;;;;;;;;;5437653;26;20003;-63
2024/04/12 08:28:55;;;;;;;4.32;2.85;;;;;;;;;;5431074;26;20019;-65
2024/04/12 08:31:29;;;;;;;4.88;3.40;;;;;;;;;;5436595;26;20003;-64
2024/04/12 08:33:57;;;;;;;9.10;3.35;;;;;;;;;;5427155;26;20002;-64
2024/04/12 08:36:32;;;;;;;5.22;3.22;;;;;;;;;;5448143;26;20022;-63
2024/04/12 08:39:12;;;;;;;4.65;3.28;;;;;;;;;;5441454;26;20644;-64
2024/04/12 08:41:43;;;;;;;3.47;3.05;;;;;;;;;;5441278;26;20317;-65
2024/04/12 08:44:10;;;;;;;4.65;2.80;;;;;;;;;;5446926;26;20495;-65
2024/04/12 08:46:46;;;;;;;5.05;2.85;;;;;;;;;;5447549;26;20003;-66
2024/04/12 08:49:17;;;;;;;5.95;3.08;;;;;;;;;;5435206;26;20532;-63
2024/04/12 08:51:53;;;;;;;3.65;3.08;;;;;;;;;;5448072;26;20075;-64
2024/04/12 08:54:21;;;;;;;4.47;2.90;;;;;;;;;;5443155;26;20075;-64
2024/04/12 08:56:52;;;;;;;3.17;2.85;;;;;;;;;;5447038;26;20010;-63
2024/04/12 08:59:26;;;;;;;3.83;2.60;;;;;;;;;;5447424;26;20003;-64
2024/04/12 09:02:00;;;;;;;2.67;2.38;;;;;;;;;;5447216;26;20435;-65
2024/04/12 09:04:28;;;;;;;3.75;3.15;;;;;;;;;;5441261;26;19998;-64
2024/04/12 09:06:58;;;;;;;3.90;3.15;;;;;;;;;;5443134;26;20087;-65
2024/04/12 09:09:26;;;;;;;5.47;3.25;;;;;;;;;;5443459;26;19999;-64
2024/04/12 09:11:56;;;;;;;4.13;3.17;;;;;;;;;;5445822;26;20011;-63
2024/04/12 09:14:24;;;;;;;4.47;2.88;;;;;;;;;;5447282;26;20007;-65
2024/04/12 09:17:13;;;;;;;3.78;3.08;;;;;;;;;;5442088;26;20442;-66
2024/04/12 09:19:41;;;;;;;3.38;2.60;;;;;;;;;;5443779;26;20013;-63
2024/04/12 09:22:12;;;;;;;4.20;2.90;;;;;;;;;;5446017;26;20019;-63
2024/04/12 09:24:40;;;;;;;5.50;3.05;;;;;;;;;;5445718;26;20003;-65
2024/04/12 09:27:13;;;;;;;4.95;3.20;;;;;;;;;;5445203;26;20007;-64
2024/04/12 09:29:44;;;;;;;4.47;3.22;;;;;;;;;;5428196;26;20503;-65
2024/04/12 09:35:03;;;;;;;3.72;3.00;;;;;;;;;;5434244;26;20030;-64
2024/04/12 09:37:38;;;;;;;6.65;2.80;;;;;;;;;;5440829;26;20367;-64
2024/04/12 09:40:28;;;;;;;5.35;2.78;;;;;;;;;;5437328;26;19998;-64
2024/04/12 09:45:52;;;;;;;4.10;3.13;;;;;;;;;;5441815;26;20009;-64
2024/04/12 10:39:15;;;;;;;5.72;3.20;;;;;;;;;;5390721;26;20476;-65
2024/04/12 10:41:46;;;;;;;4.00;3.00;;;;;;;;;;5444687;26;20014;-65
2024/04/12 10:44:16;;;;;;;5.18;2.90;;;;;;;;;;5446349;26;20010;-64
2024/04/12 10:46:50;;;;;;;3.80;3.00;;;;;;;;;;5444522;26;20018;-64
2024/04/12 10:49:21;;;;;;;3.00;2.33;;;;;;;;;;5443453;26;20116;-65
2024/04/12 10:51:52;;;;;;;5.32;2.72;;;;;;;;;;5448242;26;20057;-64
2024/04/12 10:54:23;;;;;;;4.88;2.72;;;;;;;;;;5444853;26;20038;-65
2024/04/12 10:56:56;;;;;;;4.75;2.78;;;;;;;;;;5447747;26;19999;-65
2024/04/12 10:59:27;;;;;;;3.92;2.50;;;;;;;;;;5448668;26;19995;-64
2024/04/12 11:01:59;;;;;;;2.90;2.53;;;;;;;;;;5452243;26;20011;-66
2024/04/12 11:04:34;;;;;;;3.25;2.38;;;;;;;;;;5444224;26;19999;-65
2024/04/12 11:07:05;;;;;;;3.20;2.90;;;;;;;;;;5436720;26;20007;-65
2024/04/12 11:09:43;;;;;;;4.45;3.75;;;;;;;;;;5438329;26;19998;-65
2024/04/12 11:12:17;;;;;;;3.25;2.53;;;;;;;;;;5440087;26;20064;-64
2024/04/12 11:14:50;;;;;;;3.38;2.58;;;;;;;;;;5446190;26;20070;-65
2024/04/12 11:31:29;;;;;;;4.40;3.22;;;;;;;;;;5420294;26;19999;-65
2024/04/12 11:34:06;;;;;;;3.60;2.58;;;;;;;;;;5446512;26;20079;-64
2024/04/12 11:36:42;;;;;;;4.25;2.90;;;;;;;;;;5440990;26;20010;-64
2024/04/12 11:39:17;;;;;;;5.43;3.47;;;;;;;;;;5440705;26;20019;-64
2024/04/12 11:41:52;;;;;;;3.90;3.17;;;;;;;;;;5446853;26;20003;-65
2024/04/12 11:44:19;;;;;;;3.45;2.58;;;;;;;;;;5433768;26;20014;-65
2024/04/12 11:46:54;;;;;;;3.33;2.70;;;;;;;;;;5432833;26;20011;-64
2024/04/12 11:49:27;;;;;;;;;;;;;;;;;;5440610;26;20048;-64
2024/04/12 11:51:55;;;;;;;4.05;2.50;;;;;;;;;;5447657;26;19931;-64
2024/04/12 11:54:28;;;;;;;2.55;2.35;;;;;;;;;;5445805;26;20416;-64
2024/04/12 11:57:00;;;;;;;3.20;2.38;;;;;;;;;;5445651;26;19999;-64
2024/04/12 11:59:31;;;;;;;5.85;2.78;;;;;;;;;;5445448;26;20003;-64
2024/04/12 12:01:59;;;;;;;3.30;2.50;;;;;;;;;;5443218;26;19999;-65
2024/04/12 12:04:30;;;;;;;5.53;3.40;;;;;;;;;;5437656;26;20003;-65
2024/04/12 12:06:59;;;;;;;4.10;2.92;;;;;;;;;;5434569;26;20071;-65
2024/04/12 12:09:31;;;;;;;4.80;3.47;;;;;;;;;;5438496;26;20018;-64
2024/04/12 12:12:03;;;;;;;6.88;2.10;;;;;;;;;;5449544;26;20002;-65
2024/04/12 12:14:34;;;;;;;2.72;2.20;;;;;;;;;;5448899;26;20035;-66
2024/04/12 12:17:05;;;;;;;3.58;2.88;;;;;;;;;;5440526;26;20022;-65
2024/04/12 12:19:36;;;;;;;3.78;3.10;;;;;;;;;;5447598;26;20374;-66
2024/04/12 12:22:03;;;;;;;6.22;3.17;;;;;;;;;;5447691;26;19999;-64
2024/04/12 12:24:37;;;;;;;2.95;2.67;;;;;;;;;;5446922;26;20475;-64
2024/04/12 12:27:08;;;;;;;3.38;2.42;;;;;;;;;;5445997;26;19999;-64
2024/04/12 12:29:39;;;;;;;4.53;3.42;;;;;;;;;;5444561;26;20007;-65
2024/04/12 12:32:06;;;;;;;6.30;2.78;;;;;;;;;;5439702;26;20615;-64
2024/04/12 12:34:38;;;;;;;3.53;2.75;;;;;;;;;;5449282;26;20006;-64
2024/04/12 12:37:06;;;;;;;5.43;3.65;;;;;;;;;;5438262;26;19999;-64
2024/04/12 12:39:37;;;;;;;3.92;3.00;;;;;;;;;;5439759;26;20083;-66
2024/04/12 12:42:09;;;;;;;5.22;3.10;;;;;;;;;;5442926;26;19999;-70
2024/04/12 12:44:40;;;;;;;3.88;2.65;;;;;;;;;;5447446;26;20445;-64
2024/04/12 12:47:08;;;;;;;4.47;2.75;;;;;;;;;;5443392;26;20463;-64
2024/04/12 12:49:46;;;;;;;5.57;3.10;;;;;;;;;;5439632;26;20340;-65
2024/04/12 12:52:14;;;;;;;3.88;3.15;;;;;;;;;;5446355;26;20014;-65
2024/04/12 12:54:45;;;;;;;4.95;3.67;;;;;;;;;;5431040;26;20182;-64
2024/04/12 12:57:15;;;;;;;3.50;2.88;;;;;;;;;;5441692;26;20009;-63
2024/04/12 12:59:46;;;;;;;5.22;2.95;;;;;;;;;;5448871;26;20409;-65
2024/04/12 13:02:14;;;;;;;3.45;2.58;;;;;;;;;;5437744;26;20075;-65
2024/04/12 13:04:46;;;;;;;5.18;3.42;;;;;;;;;;5434787;26;20003;-64
2024/04/12 13:07:16;;;;;;;3.92;3.20;;;;;;;;;;5425744;26;20892;-64
2024/04/12 13:09:53;;;;;;;5.38;3.95;;;;;;;;;;5434687;26;20415;-64
2024/04/12 13:12:28;;;;;;;6.22;4.68;;;;;;;;;;5433735;26;20002;-64
2024/04/12 13:15:00;;;;;;;4.50;3.53;;;;;;;;;;5434932;26;20087;-64
2024/04/12 13:17:36;;;;;;;3.22;2.80;;;;;;;;;;5436540;26;20077;-64
2024/04/12 13:20:12;;;;;;;5.32;3.53;;;;;;;;;;5446230;26;20021;-65
2024/04/12 13:22:40;;;;;;;4.25;3.35;;;;;;;;;;5425166;26;19999;-66
2024/04/12 13:25:13;;;;;;;4.32;3.10;;;;;;;;;;5438432;26;20038;-65
2024/04/12 13:27:47;;;;;;;5.00;3.60;;;;;;;;;;5443148;26;20558;-65
2024/04/12 13:30:18;;;;;;;6.17;4.17;;;;;;;;;;5445947;26;20010;-64
2024/04/12 13:32:48;;;;;;;5.82;3.25;;;;;;;;;;5447492;26;20003;-64
2024/04/12 13:35:20;;;;;;;3.50;3.17;;;;;;;;;;5423656;26;20011;-65
2024/04/12 13:37:48;;;;;;;5.47;4.32;;;;;;;;;;5445889;26;20009;-65
2024/04/12 13:40:20;;;;;;;4.95;4.32;;;;;;;;;;5447546;26;20064;-64
2024/04/12 13:42:50;;;;;;;4.45;3.72;;;;;;;;;;5448519;26;20013;-64
2024/04/12 13:51:01;;;;;;;5.22;3.83;;;;;;;;;;5444358;26;19998;-65
2024/04/12 13:53:36;;;;;;;5.88;3.50;;;;;;;;;;5447708;26;20068;-67
2024/04/12 13:58:53;;;;;;;;;;;;;;;;;;5447854;26;19924;-65
2024/04/12 14:01:23;;;;;;;3.97;3.00;;;;;;;;;;5447261;26;19924;-63
2024/04/12 14:03:54;;;;;;;4.78;3.40;;;;;;;;;;5440755;26;20003;-65
2024/04/12 14:06:23;;;;;;;4.22;3.83;;;;;;;;;;5438577;26;20075;-65
2024/04/12 14:08:55;;;;;;;4.50;3.65;;;;;;;;;;5446948;26;20003;-65
2024/04/12 14:11:23;;;;;;;4.03;3.30;;;;;;;;;;5440677;26;20031;-64
2024/04/12 14:13:53;;;;;;;4.40;2.67;;;;;;;;;;5441552;26;20021;-64
2024/04/12 14:16:28;;;;;;;4.68;3.00;;;;;;;;;;5445108;26;20010;-66
2024/04/12 14:18:59;;;;;;;4.68;3.22;;;;;;;;;;5420997;26;20012;-66
2024/04/12 14:21:26;;;;;;;4.25;3.70;;;;;;;;;;5438177;26;20011;-65
2024/04/12 14:24:02;;;;;;;6.50;3.58;;;;;;;;;;5442277;26;20004;-64
2024/04/12 14:26:31;;;;;;;6.22;4.20;;;;;;;;;;5416015;26;20163;-65
2024/04/12 14:29:01;;;;;;;4.30;3.53;;;;;;;;;;5428046;26;20035;-64
2024/04/12 14:31:32;;;;;;;4.05;3.63;;;;;;;;;;5433150;26;20829;-66
2024/04/12 14:34:02;;;;;;;3.53;3.15;;;;;;;;;;5439483;26;20003;-64
2024/04/12 14:36:29;;;;;;;5.90;3.45;;;;;;;;;;5443626;26;20375;-63
2024/04/12 14:39:00;;;;;;;3.30;2.97;;;;;;;;;;5434677;26;20007;-65
2024/04/12 14:41:33;;;;;;;4.78;2.67;;;;;;;;;;5442153;26;20444;-67
2024/04/12 14:44:06;;;;;;;7.13;2.80;;;;;;;;;;5434796;26;20128;-66
2024/04/12 14:46:38;;;;;;;3.15;2.85;;;;;;;;;;5422221;26;19999;-67
2024/04/12 14:49:09;;;;;;;6.57;3.22;;;;;;;;;;5438262;26;20003;-66
2024/04/12 14:51:42;;;;;;;3.60;2.80;;;;;;;;;;5441851;26;20030;-66
2024/04/12 14:54:13;;;;;;;4.20;2.90;;;;;;;;;;5439885;26;20017;-66
2024/04/12 14:56:42;;;;;;;4.00;3.05;;;;;;;;;;5432107;26;20010;-65
2024/04/12 14:59:15;;;;;;;4.80;3.28;;;;;;;;;;5442810;26;20014;-66
2024/04/12 15:01:45;;;;;;;2.72;2.42;;;;;;;;;;5447315;26;20029;-66
2024/04/12 15:48:41;;;;;;;3.42;2.60;;;;;;;;;;5436242;26;19995;-68
2024/04/12 15:51:16;;;;;;;3.10;2.80;;;;;;;;;;5436561;26;20008;-68
2024/04/12 15:53:48;;;;;;;5.05;2.92;;;;;;;;;;5442044;26;20356;-67
2024/04/12 16:13:00;;;;;;;3.70;2.83;;;;;;;;;;5445072;26;20007;-67
2024/04/12 16:15:30;;;;;;;3.85;3.00;;;;;;;;;;5429546;26;20008;-68
2024/04/12 16:18:00;;;;;;;5.28;2.67;;;;;;;;;;5441589;26;19999;-62
2024/04/12 16:20:32;;;;;;;4.70;3.15;;;;;;;;;;5449043;26;20007;-61
2024/04/12 16:23:02;;;;;;;3.83;2.35;;;;;;;;;;5435312;26;20046;-63
2024/04/12 16:25:32;;;;;;;2.72;2.40;;;;;;;;;;5442959;26;20003;-64
2024/04/12 16:28:02;;;;;;;3.60;2.92;;;;;;;;;;5442344;26;20340;-63
2024/04/12 16:30:32;;;;;;;5.93;2.88;;;;;;;;;;5430280;26;20060;-62
2024/04/12 16:32:59;;;;;;;3.78;2.42;;;;;;;;;;5438570;26;20004;-63
2024/04/12 16:35:30;;;;;;;2.85;2.40;;;;;;;;;;5447195;26;20003;-65
2024/04/12 16:37:59;;;;;;;4.45;3.22;;;;;;;;;;5441065;26;20539;-63
2024/04/12 16:40:35;;;;;;;6.32;2.78;;;;;;;;;;5445362;26;20456;-63
2024/04/12 16:43:04;;;;;;;3.05;2.60;;;;;;;;;;5443926;26;20029;-63
2024/04/12 16:45:34;;;;;;;2.85;2.20;;;;;;;;;;5440100;26;20402;-62
2024/04/12 16:48:02;;;;;;;3.15;2.78;;;;;;;;;;5444672;26;20401;-64
2024/04/12 16:50:33;;;;;;;5.10;3.00;;;;;;;;;;5434480;26;20018;-64
2024/04/12 16:53:01;;;;;;;4.05;2.40;;;;;;;;;;5425742;26;19999;-63
2024/04/12 16:55:31;;;;;;;2.50;2.30;;;;;;;;;;5426644;26;20125;-66
2024/04/12 16:58:04;;;;;;;3.75;2.00;;;;;;;;;;5432733;26;20363;-62
2024/04/12 17:00:35;;;;;;;4.13;2.22;;;;;;;;;;5439122;26;20088;-63
2024/04/12 17:03:03;;;;;;;2.95;2.47;;;;;;;;;;5433298;26;20091;-64
2024/04/12 17:05:34;;;;;;;6.38;3.88;;;;;;;;;;5432449;26;20035;-62
2024/04/12 17:08:03;;;;;;;3.28;2.72;;;;;;;;;;5431054;26;20083;-65
2024/04/12 17:10:34;;;;;;;4.22;2.42;;;;;;;;;;5448073;26;20014;-63
2024/04/12 17:13:04;;;;;;;3.05;2.63;;;;;;;;;;5435106;26;20009;-65
2024/04/12 17:15:35;;;;;;;4.15;3.03;;;;;;;;;;5432613;26;20017;-65
2024/04/12 17:18:03;;;;;;;3.65;2.38;;;;;;;;;;5430640;26;20071;-64
2024/04/12 17:20:34;;;;;;;5.53;2.50;;;;;;;;;;5441889;26;20003;-63
2024/04/12 17:23:04;;;;;;;2.88;2.42;;;;;;;;;;5436991;26;20397;-66
2024/04/12 17:25:34;;;;;;;4.20;2.10;;;;;;;;;;5446873;26;20075;-66
2024/04/12 17:28:06;;;;;;;3.08;2.30;;;;;;;;;;5440979;26;19999;-67
2024/04/12 17:30:36;;;;;;;4.70;2.88;;;;;;;;;;5434264;26;20003;-65
2024/04/12 17:33:04;;;;;;;5.05;2.80;;;;;;;;;;5443956;26;20013;-67